Time;durP1;ratioP1;P1;durP2;ratioP2;P2;SDS_P1;SDS_P2;PMS_P1;PMS_P2;Temp;Humidity;BMP_temperature;BMP_pressure;BME280_temperature;BME280_humidity;BME280_pressure;Samples;Min_cycle;Max_cycle;Signal;HPM_P1;HPM_P2
2021/10/05 00:00:27;;;;;;;1.02;1.02;;;;;;;;;;4995984;28;20694;-80
2021/10/05 00:02:55;;;;;;;1.40;1.30;;;;;;;;;;4994279;28;20638;-80
2021/10/05 00:05:24;;;;;;;1.25;1.25;;;;;;;;;;4995592;28;20687;-80
2021/10/05 00:07:51;;;;;;;0.95;0.95;;;;;;;;;;4995945;28;20982;-80
2021/10/05 00:10:19;;;;;;;1.00;0.93;;;;;;;;;;4995379;28;20200;-81
2021/10/05 00:12:46;;;;;;;0.85;0.85;;;;;;;;;;5030109;28;20202;-80
2021/10/05 00:15:16;;;;;;;1.10;1.10;;;;;;;;;;5035329;28;20206;-80
2021/10/05 00:17:43;;;;;;;1.13;1.13;;;;;;;;;;5035023;28;20249;-80
2021/10/05 00:20:13;;;;;;;1.52;1.42;;;;;;;;;;5034697;28;20239;-81
2021/10/05 00:22:43;;;;;;;1.67;1.45;;;;;;;;;;5034857;28;20199;-80
2021/10/05 00:25:12;;;;;;;1.58;1.48;;;;;;;;;;5035270;28;20186;-80
2021/10/05 00:27:39;;;;;;;1.20;1.20;;;;;;;;;;5035342;28;20230;-80
2021/10/05 00:30:08;;;;;;;1.23;1.17;;;;;;;;;;5034937;28;20209;-82
2021/10/05 00:32:35;;;;;;;1.27;1.20;;;;;;;;;;5034934;28;20182;-80
2021/10/05 00:35:03;;;;;;;1.27;1.17;;;;;;;;;;5034940;28;20194;-80
2021/10/05 00:37:30;;;;;;;0.90;0.90;;;;;;;;;;5034952;28;20792;-80
2021/10/05 00:40:00;;;;;;;0.90;0.90;;;;;;;;;;5035131;28;20202;-80
2021/10/05 00:42:27;;;;;;;1.17;1.15;;;;;;;;;;5034860;28;20190;-80
2021/10/05 00:44:55;;;;;;;1.10;1.10;;;;;;;;;;5034997;28;20197;-80
2021/10/05 00:47:23;;;;;;;0.80;0.80;;;;;;;;;;5034429;28;20218;-80
2021/10/05 00:49:51;;;;;;;1.17;1.17;;;;;;;;;;5028206;28;20199;-80
2021/10/05 00:52:22;;;;;;;1.05;1.05;;;;;;;;;;5014789;28;20191;-80
2021/10/05 00:54:50;;;;;;;1.02;1.02;;;;;;;;;;5014680;28;20207;-81
2021/10/05 00:57:19;;;;;;;1.13;1.13;;;;;;;;;;5015002;28;20233;-81
2021/10/05 00:59:46;;;;;;;1.20;1.20;;;;;;;;;;5015506;28;20187;-80
2021/10/05 01:02:15;;;;;;;2.28;1.40;;;;;;;;;;5033867;28;20222;-80
2021/10/05 01:04:44;;;;;;;1.25;1.25;;;;;;;;;;5034440;28;20239;-80
2021/10/05 01:07:16;;;;;;;1.40;1.30;;;;;;;;;;5034127;28;20587;-80
2021/10/05 01:09:45;;;;;;;2.50;2.30;;;;;;;;;;5034425;28;20186;-81
2021/10/05 01:12:13;;;;;;;1.98;1.83;;;;;;;;;;5032671;28;20198;-80
2021/10/05 01:14:43;;;;;;;1.60;1.50;;;;;;;;;;5033678;28;20218;-80
2021/10/05 01:17:11;;;;;;;1.45;1.35;;;;;;;;;;5033893;28;20238;-81
2021/10/05 01:19:40;;;;;;;1.83;1.73;;;;;;;;;;5034153;28;20213;-80
2021/10/05 01:22:09;;;;;;;1.58;1.48;;;;;;;;;;5033750;28;20280;-80
2021/10/05 01:24:37;;;;;;;1.42;1.33;;;;;;;;;;5033954;28;20187;-80
2021/10/05 01:27:05;;;;;;;1.42;1.20;;;;;;;;;;5033692;28;20221;-81
2021/10/05 01:29:35;;;;;;;2.42;1.95;;;;;;;;;;5016678;28;20210;-80
2021/10/05 01:32:05;;;;;;;1.50;1.40;;;;;;;;;;5014180;28;20569;-80
2021/10/05 01:34:34;;;;;;;1.70;1.60;;;;;;;;;;5022599;28;20195;-80
2021/10/05 01:37:02;;;;;;;2.47;2.28;;;;;;;;;;5033973;28;20630;-81
2021/10/05 01:39:32;;;;;;;2.67;2.47;;;;;;;;;;5033686;28;20187;-80
2021/10/05 01:42:03;;;;;;;1.80;1.70;;;;;;;;;;5033779;28;20210;-80
2021/10/05 01:44:31;;;;;;;2.75;2.50;;;;;;;;;;5033968;28;20197;-80
2021/10/05 01:46:58;;;;;;;2.85;2.65;;;;;;;;;;5033543;28;20222;-81
2021/10/05 01:49:26;;;;;;;2.00;1.90;;;;;;;;;;5033476;28;20182;-81
2021/10/05 01:51:54;;;;;;;2.42;1.75;;;;;;;;;;5033221;28;20205;-80
2021/10/05 01:54:22;;;;;;;2.33;2.13;;;;;;;;;;5030892;28;20633;-80
2021/10/05 01:56:51;;;;;;;2.63;2.42;;;;;;;;;;5013834;28;20227;-81
2021/10/05 01:59:18;;;;;;;1.98;1.85;;;;;;;;;;5012868;28;20649;-80
2021/10/05 02:01:46;;;;;;;2.55;2.45;;;;;;;;;;5013864;28;20222;-80
2021/10/05 02:04:13;;;;;;;2.92;2.65;;;;;;;;;;5013959;28;20215;-81
2021/10/05 02:06:42;;;;;;;2.47;2.28;;;;;;;;;;5013855;28;20227;-80
2021/10/05 02:09:12;;;;;;;2.97;2.78;;;;;;;;;;5013618;28;20203;-81
2021/10/05 02:11:40;;;;;;;2.55;2.35;;;;;;;;;;5013893;28;20183;-81
2021/10/05 02:14:09;;;;;;;2.88;2.38;;;;;;;;;;5013557;28;20187;-81
2021/10/05 02:16:37;;;;;;;2.00;1.70;;;;;;;;;;5013628;28;20245;-80
2021/10/05 02:19:06;;;;;;;1.70;1.60;;;;;;;;;;5013648;28;20254;-81
2021/10/05 02:21:34;;;;;;;1.60;1.50;;;;;;;;;;5013525;28;20261;-80
2021/10/05 02:26:48;;;;;;;1.52;1.40;;;;;;;;;;5013379;28;20222;-81
2021/10/05 02:29:17;;;;;;;1.50;1.40;;;;;;;;;;5013536;28;20199;-81
2021/10/05 02:31:44;;;;;;;1.15;1.15;;;;;;;;;;5014067;28;20206;-81
2021/10/05 02:34:13;;;;;;;1.88;1.30;;;;;;;;;;5013706;28;20199;-81
2021/10/05 02:36:41;;;;;;;1.20;1.10;;;;;;;;;;5013636;28;20222;-81
2021/10/05 02:39:09;;;;;;;1.50;1.40;;;;;;;;;;5013466;28;20210;-82
2021/10/05 02:41:36;;;;;;;0.98;0.98;;;;;;;;;;5013891;28;20223;-81
2021/10/05 02:44:05;;;;;;;1.00;1.00;;;;;;;;;;5013409;28;20187;-81
2021/10/05 02:46:34;;;;;;;1.23;1.15;;;;;;;;;;5026352;28;20215;-81
2021/10/05 02:49:01;;;;;;;1.05;1.02;;;;;;;;;;5033694;28;20201;-81
2021/10/05 02:51:29;;;;;;;0.70;0.70;;;;;;;;;;5033651;28;20205;-81
2021/10/05 02:53:56;;;;;;;0.70;0.70;;;;;;;;;;5032667;28;20580;-81
2021/10/05 02:56:24;;;;;;;1.25;1.25;;;;;;;;;;5032349;28;20199;-81
2021/10/05 02:58:51;;;;;;;1.15;0.80;;;;;;;;;;5032999;28;20548;-81
2021/10/05 03:01:19;;;;;;;1.10;1.10;;;;;;;;;;5032212;28;20202;-82
2021/10/05 03:03:47;;;;;;;1.05;0.98;;;;;;;;;;5027191;28;20203;-81
2021/10/05 03:06:15;;;;;;;0.90;0.90;;;;;;;;;;5031192;28;20658;-81
2021/10/05 03:08:43;;;;;;;1.17;1.10;;;;;;;;;;5013237;28;20197;-80
2021/10/05 03:11:10;;;;;;;1.55;1.45;;;;;;;;;;5014615;28;20207;-81
2021/10/05 03:13:38;;;;;;;0.75;0.75;;;;;;;;;;5017009;28;20657;-80
2021/10/05 03:16:07;;;;;;;0.93;0.93;;;;;;;;;;5016617;28;20206;-81
2021/10/05 03:18:35;;;;;;;0.60;0.60;;;;;;;;;;5016182;28;20245;-80
2021/10/05 03:21:04;;;;;;;0.70;0.70;;;;;;;;;;5029488;28;20689;-80
2021/10/05 03:23:32;;;;;;;1.52;0.90;;;;;;;;;;5037055;28;20584;-79
2021/10/05 03:25:59;;;;;;;0.70;0.70;;;;;;;;;;5036064;28;20672;-81
2021/10/05 03:28:27;;;;;;;0.50;0.50;;;;;;;;;;5036462;28;20225;-81
2021/10/05 03:30:54;;;;;;;0.77;0.77;;;;;;;;;;5035853;28;20206;-81
2021/10/05 03:33:22;;;;;;;0.70;0.70;;;;;;;;;;5036509;28;20202;-82
2021/10/05 03:35:49;;;;;;;1.05;1.05;;;;;;;;;;5037237;28;20182;-82
2021/10/05 03:38:18;;;;;;;1.20;1.20;;;;;;;;;;5036883;28;20218;-81
2021/10/05 03:40:45;;;;;;;2.03;1.88;;;;;;;;;;5036696;28;20597;-81
2021/10/05 03:43:13;;;;;;;1.42;1.17;;;;;;;;;;5036922;28;20249;-82
2021/10/05 03:45:40;;;;;;;1.10;1.10;;;;;;;;;;5036856;28;20190;-83
2021/10/05 03:48:08;;;;;;;1.00;1.00;;;;;;;;;;5037042;28;20219;-82
2021/10/05 03:50:35;;;;;;;1.20;1.20;;;;;;;;;;5036900;28;20282;-82
2021/10/05 03:53:03;;;;;;;1.65;1.55;;;;;;;;;;5036602;28;20209;-82
2021/10/05 03:55:31;;;;;;;1.63;1.50;;;;;;;;;;5035800;28;20187;-82
2021/10/05 03:57:59;;;;;;;1.45;1.30;;;;;;;;;;5036496;28;20302;-82
2021/10/05 04:00:26;;;;;;;1.60;1.50;;;;;;;;;;5036760;28;20182;-82
2021/10/05 04:02:55;;;;;;;1.50;1.40;;;;;;;;;;5035337;28;20227;-81
2021/10/05 04:05:23;;;;;;;2.08;1.88;;;;;;;;;;5016807;28;20249;-82
2021/10/05 04:07:50;;;;;;;2.40;2.22;;;;;;;;;;5016288;28;20241;-81
2021/10/05 04:10:18;;;;;;;1.70;1.60;;;;;;;;;;5014432;28;20669;-81
2021/10/05 04:12:46;;;;;;;1.42;1.35;;;;;;;;;;5014327;28;20183;-81
2021/10/05 04:15:14;;;;;;;1.67;1.58;;;;;;;;;;5014516;28;20191;-82
2021/10/05 04:17:41;;;;;;;4.00;2.97;;;;;;;;;;5013792;28;20720;-82
2021/10/05 04:20:11;;;;;;;1.60;1.50;;;;;;;;;;5013903;28;20187;-81
2021/10/05 04:22:39;;;;;;;1.50;1.40;;;;;;;;;;5013564;28;20207;-82
2021/10/05 04:25:08;;;;;;;2.50;2.30;;;;;;;;;;5014039;28;20559;-82
2021/10/05 04:27:36;;;;;;;1.70;1.60;;;;;;;;;;5014215;28;20226;-82
2021/10/05 04:30:06;;;;;;;1.88;1.77;;;;;;;;;;5014400;28;20187;-82
2021/10/05 04:32:33;;;;;;;1.35;1.25;;;;;;;;;;5014054;28;20664;-81
2021/10/05 04:35:01;;;;;;;1.77;1.67;;;;;;;;;;5013457;28;20577;-82
2021/10/05 04:37:29;;;;;;;2.60;2.40;;;;;;;;;;5013902;28;20226;-82
2021/10/05 04:39:56;;;;;;;2.10;2.00;;;;;;;;;;5014159;28;20192;-82
2021/10/05 04:42:24;;;;;;;2.08;1.88;;;;;;;;;;5013428;28;20203;-82
2021/10/05 04:44:52;;;;;;;1.75;1.65;;;;;;;;;;5013869;28;20176;-81
2021/10/05 04:47:21;;;;;;;2.35;2.15;;;;;;;;;;5013627;28;20214;-82
2021/10/05 04:49:48;;;;;;;2.30;2.10;;;;;;;;;;5013306;28;20199;-81
2021/10/05 04:52:16;;;;;;;2.47;2.28;;;;;;;;;;5017291;28;20203;-82
2021/10/05 04:54:43;;;;;;;2.15;2.05;;;;;;;;;;5013807;28;20542;-81
2021/10/05 04:57:11;;;;;;;2.08;1.92;;;;;;;;;;5013100;28;20227;-81
2021/10/05 04:59:39;;;;;;;2.20;2.00;;;;;;;;;;5013227;28;20234;-81
2021/10/05 05:02:07;;;;;;;2.33;2.00;;;;;;;;;;5012877;28;20204;-81
2021/10/05 05:04:36;;;;;;;3.15;2.85;;;;;;;;;;5013231;28;20725;-81
2021/10/05 05:07:04;;;;;;;2.08;1.98;;;;;;;;;;5013397;28;20959;-82
2021/10/05 05:09:32;;;;;;;2.15;1.90;;;;;;;;;;5013689;28;20184;-81
2021/10/05 05:11:59;;;;;;;1.95;1.80;;;;;;;;;;5013627;28;20187;-81
2021/10/05 05:14:27;;;;;;;2.00;1.90;;;;;;;;;;5013825;28;20217;-81
2021/10/05 05:16:54;;;;;;;3.33;2.47;;;;;;;;;;5013195;28;20568;-81
2021/10/05 05:19:22;;;;;;;2.05;1.95;;;;;;;;;;5013476;28;20803;-81
2021/10/05 05:21:53;;;;;;;1.50;1.40;;;;;;;;;;5012695;28;20213;-81
2021/10/05 05:24:20;;;;;;;1.70;1.60;;;;;;;;;;5013439;28;20203;-81
2021/10/05 05:26:48;;;;;;;1.83;1.73;;;;;;;;;;5012683;28;20269;-82
2021/10/05 05:29:15;;;;;;;1.70;1.60;;;;;;;;;;5013089;28;20199;-80
2021/10/05 05:31:44;;;;;;;4.75;3.53;;;;;;;;;;5012187;28;20213;-81
2021/10/05 05:34:11;;;;;;;2.47;2.28;;;;;;;;;;5012311;28;20195;-81
2021/10/05 05:36:39;;;;;;;2.90;2.58;;;;;;;;;;5013080;28;20229;-81
2021/10/05 05:39:08;;;;;;;3.20;2.97;;;;;;;;;;5012534;28;20213;-80
2021/10/05 05:41:35;;;;;;;4.32;2.75;;;;;;;;;;5020420;28;20205;-81
2021/10/05 05:44:02;;;;;;;2.65;2.45;;;;;;;;;;5032669;28;20210;-81
2021/10/05 05:46:30;;;;;;;2.88;2.58;;;;;;;;;;5032658;28;20187;-80
2021/10/05 05:48:57;;;;;;;1.73;1.63;;;;;;;;;;5032324;28;20210;-81
2021/10/05 05:51:25;;;;;;;2.45;2.28;;;;;;;;;;5031299;28;20710;-80
2021/10/05 05:53:52;;;;;;;2.67;2.40;;;;;;;;;;5032207;28;20186;-81
2021/10/05 05:56:21;;;;;;;3.25;2.78;;;;;;;;;;5032250;28;20664;-81
2021/10/05 05:58:52;;;;;;;3.28;3.08;;;;;;;;;;5032738;28;20190;-81
2021/10/05 06:01:21;;;;;;;3.53;3.22;;;;;;;;;;5032103;28;20194;-81
2021/10/05 06:03:50;;;;;;;4.93;4.43;;;;;;;;;;5032659;28;20207;-81
2021/10/05 06:06:17;;;;;;;3.85;3.55;;;;;;;;;;5032777;28;20233;-81
2021/10/05 06:08:47;;;;;;;3.80;3.50;;;;;;;;;;5033048;28;20201;-81
2021/10/05 06:11:14;;;;;;;4.55;4.15;;;;;;;;;;5032426;28;20820;-81
2021/10/05 06:13:43;;;;;;;4.82;4.25;;;;;;;;;;5032575;28;20244;-81
2021/10/05 06:16:11;;;;;;;3.90;3.53;;;;;;;;;;5032554;28;20190;-81
2021/10/05 06:18:38;;;;;;;3.55;3.20;;;;;;;;;;5032472;28;20206;-81
2021/10/05 06:21:05;;;;;;;3.05;2.83;;;;;;;;;;5014337;28;20576;-81
2021/10/05 06:23:33;;;;;;;3.85;3.47;;;;;;;;;;5012496;28;20203;-81
2021/10/05 06:26:00;;;;;;;3.35;3.10;;;;;;;;;;5011721;28;20206;-81
2021/10/05 06:28:28;;;;;;;4.35;3.95;;;;;;;;;;5012106;28;20712;-81
2021/10/05 06:30:57;;;;;;;4.50;4.07;;;;;;;;;;5012798;28;20194;-81
2021/10/05 06:33:24;;;;;;;3.53;3.22;;;;;;;;;;5012050;28;20191;-81
2021/10/05 06:35:52;;;;;;;3.38;3.08;;;;;;;;;;5012235;28;20195;-81
2021/10/05 06:38:19;;;;;;;3.03;2.80;;;;;;;;;;5012329;28;20235;-80
2021/10/05 06:40:47;;;;;;;3.10;2.88;;;;;;;;;;5012436;28;20207;-80
2021/10/05 06:43:15;;;;;;;2.67;2.47;;;;;;;;;;5012253;28;20203;-81
2021/10/05 06:45:42;;;;;;;2.92;2.65;;;;;;;;;;5014075;28;20219;-81
2021/10/05 06:48:11;;;;;;;2.85;2.60;;;;;;;;;;5017605;28;20227;-81
2021/10/05 06:50:38;;;;;;;2.72;2.53;;;;;;;;;;5016946;28;20214;-82
2021/10/05 06:53:07;;;;;;;2.78;2.58;;;;;;;;;;5017378;28;20191;-81
2021/10/05 06:55:34;;;;;;;2.80;2.55;;;;;;;;;;5016955;28;20267;-81
2021/10/05 06:58:02;;;;;;;3.10;2.85;;;;;;;;;;5017317;28;20301;-82
2021/10/05 07:00:29;;;;;;;2.25;2.05;;;;;;;;;;5017439;28;20221;-81
2021/10/05 07:02:57;;;;;;;2.42;2.05;;;;;;;;;;5017410;28;20191;-81
2021/10/05 07:05:26;;;;;;;2.40;2.20;;;;;;;;;;5017266;28;20234;-80
2021/10/05 07:07:54;;;;;;;2.70;2.38;;;;;;;;;;5016432;28;20697;-80
2021/10/05 07:10:24;;;;;;;3.00;2.80;;;;;;;;;;5016820;28;20201;-82
2021/10/05 07:12:51;;;;;;;3.83;3.30;;;;;;;;;;5016923;28;20230;-81
2021/10/05 07:15:19;;;;;;;3.90;2.70;;;;;;;;;;5016180;28;20187;-80
2021/10/05 07:17:47;;;;;;;2.42;2.22;;;;;;;;;;5015969;28;20293;-79
2021/10/05 07:20:14;;;;;;;3.55;3.10;;;;;;;;;;5007052;28;20187;-80
2021/10/05 07:22:43;;;;;;;3.22;2.55;;;;;;;;;;4997190;28;20203;-80
2021/10/05 07:25:11;;;;;;;3.75;3.20;;;;;;;;;;4996002;28;20220;-80
2021/10/05 07:27:38;;;;;;;2.60;2.40;;;;;;;;;;4995842;28;20211;-80
2021/10/05 07:30:08;;;;;;;2.78;2.58;;;;;;;;;;4996345;28;20176;-80
2021/10/05 07:32:36;;;;;;;2.90;2.70;;;;;;;;;;5007174;28;20246;-80
2021/10/05 07:35:04;;;;;;;2.38;2.17;;;;;;;;;;5015839;28;20194;-80
2021/10/05 07:37:31;;;;;;;2.00;1.90;;;;;;;;;;5015226;28;20215;-79
2021/10/05 07:40:00;;;;;;;1.92;1.83;;;;;;;;;;5015260;28;20207;-79
2021/10/05 07:42:28;;;;;;;2.25;2.00;;;;;;;;;;5015447;28;20188;-80
2021/10/05 07:44:55;;;;;;;1.58;1.48;;;;;;;;;;5034821;28;20225;-80
2021/10/05 07:47:23;;;;;;;3.28;2.28;;;;;;;;;;5035736;28;20688;-80
2021/10/05 07:49:51;;;;;;;1.95;1.70;;;;;;;;;;5026187;28;20183;-80
2021/10/05 07:52:20;;;;;;;1.45;1.35;;;;;;;;;;4997817;28;20206;-81
2021/10/05 07:54:48;;;;;;;1.45;1.33;;;;;;;;;;5007710;28;20184;-80
2021/10/05 07:57:17;;;;;;;1.80;1.40;;;;;;;;;;5015266;28;20223;-81
2021/10/05 07:59:45;;;;;;;1.20;1.10;;;;;;;;;;5016705;28;20195;-81
2021/10/05 08:02:12;;;;;;;1.00;1.00;;;;;;;;;;5031625;28;20184;-81
2021/10/05 08:04:40;;;;;;;1.75;1.10;;;;;;;;;;5027372;28;20202;-81
2021/10/05 08:07:07;;;;;;;1.58;1.40;;;;;;;;;;5035526;28;20222;-81
2021/10/05 08:09:35;;;;;;;1.30;1.20;;;;;;;;;;5015164;28;20654;-81
2021/10/05 08:12:02;;;;;;;1.20;1.10;;;;;;;;;;4996183;28;20190;-80
2021/10/05 08:14:31;;;;;;;0.90;0.90;;;;;;;;;;4996073;28;20191;-80
2021/10/05 08:16:59;;;;;;;1.02;1.02;;;;;;;;;;4995331;28;20246;-80
2021/10/05 08:19:27;;;;;;;0.88;0.88;;;;;;;;;;5006982;28;20206;-81
2021/10/05 08:21:55;;;;;;;0.80;0.80;;;;;;;;;;5014987;28;20207;-81
2021/10/05 08:24:22;;;;;;;0.57;0.57;;;;;;;;;;5014924;28;20191;-80
2021/10/05 08:26:50;;;;;;;1.02;1.02;;;;;;;;;;5013486;28;20649;-80
2021/10/05 08:29:18;;;;;;;0.70;0.70;;;;;;;;;;5014117;28;20206;-80
2021/10/05 08:31:48;;;;;;;0.90;0.90;;;;;;;;;;5014855;28;20207;-80
2021/10/05 08:34:16;;;;;;;0.88;0.88;;;;;;;;;;5014470;28;20215;-81
2021/10/05 08:36:43;;;;;;;1.00;1.00;;;;;;;;;;5002216;28;20571;-81
2021/10/05 08:39:14;;;;;;;0.77;0.77;;;;;;;;;;4995681;28;20203;-82
2021/10/05 08:41:45;;;;;;;0.90;0.90;;;;;;;;;;4996238;28;20184;-82
2021/10/05 08:44:13;;;;;;;1.13;1.10;;;;;;;;;;4995669;28;20635;-81
2021/10/05 08:46:41;;;;;;;0.98;0.95;;;;;;;;;;4997574;28;20220;-80
2021/10/05 08:49:11;;;;;;;2.05;1.00;;;;;;;;;;4996014;28;20203;-81
2021/10/05 08:51:39;;;;;;;0.95;0.95;;;;;;;;;;4995439;28;20190;-80
2021/10/05 08:54:09;;;;;;;1.30;1.20;;;;;;;;;;4995477;28;20188;-79
2021/10/05 08:56:40;;;;;;;1.50;1.45;;;;;;;;;;5006260;28;20223;-83
2021/10/05 08:59:09;;;;;;;1.33;1.23;;;;;;;;;;5015751;28;20183;-80
2021/10/05 09:01:37;;;;;;;1.20;1.10;;;;;;;;;;5015632;28;20206;-80
2021/10/05 09:04:06;;;;;;;1.30;1.20;;;;;;;;;;5015260;28;20184;-80
2021/10/05 09:06:37;;;;;;;1.70;1.60;;;;;;;;;;5016406;28;20306;-80
2021/10/05 09:09:05;;;;;;;1.58;1.48;;;;;;;;;;5035154;28;20205;-79
2021/10/05 09:11:40;;;;;;;1.23;1.13;;;;;;;;;;5031330;28;20188;-80
2021/10/05 09:14:08;;;;;;;1.17;1.17;;;;;;;;;;5015126;28;20553;-81
2021/10/05 09:16:36;;;;;;;1.30;1.20;;;;;;;;;;5015034;28;20250;-80
2021/10/05 09:19:07;;;;;;;1.00;1.00;;;;;;;;;;5014951;28;20570;-80
2021/10/05 09:21:38;;;;;;;0.90;0.90;;;;;;;;;;5015098;28;20199;-80
2021/10/05 09:24:07;;;;;;;0.80;0.80;;;;;;;;;;5019348;28;20195;-81
2021/10/05 09:26:45;;;;;;;1.00;1.00;;;;;;;;;;5034722;28;20693;-80
2021/10/05 09:29:19;;;;;;;1.00;1.00;;;;;;;;;;5034975;28;20217;-81
2021/10/05 09:31:55;;;;;;;1.05;1.05;;;;;;;;;;5034676;28;20637;-80
2021/10/05 09:34:38;;;;;;;1.33;1.23;;;;;;;;;;5034935;28;20270;-80
2021/10/05 09:37:10;;;;;;;0.73;0.73;;;;;;;;;;5034846;28;20222;-80
2021/10/05 09:39:43;;;;;;;1.00;1.00;;;;;;;;;;5034625;28;20633;-80
2021/10/05 09:42:13;;;;;;;1.25;1.15;;;;;;;;;;5034577;28;20210;-81
2021/10/05 09:44:42;;;;;;;1.00;1.00;;;;;;;;;;5033626;28;20210;-80
2021/10/05 09:47:10;;;;;;;0.70;0.70;;;;;;;;;;5034633;28;20228;-80
2021/10/05 09:49:45;;;;;;;0.85;0.85;;;;;;;;;;5034041;28;20203;-80
2021/10/05 09:52:14;;;;;;;0.65;0.65;;;;;;;;;;5034469;28;20178;-82
2021/10/05 09:54:42;;;;;;;0.50;0.50;;;;;;;;;;5034641;28;20182;-80
2021/10/05 09:57:09;;;;;;;0.75;0.75;;;;;;;;;;5020097;28;20266;-80
2021/10/05 09:59:37;;;;;;;0.90;0.90;;;;;;;;;;4995055;28;20192;-80
2021/10/05 10:02:05;;;;;;;0.60;0.60;;;;;;;;;;4995248;28;20219;-80
2021/10/05 10:04:33;;;;;;;0.63;0.63;;;;;;;;;;4995088;28;20274;-80
2021/10/05 10:07:01;;;;;;;0.80;0.80;;;;;;;;;;4994834;28;20234;-80
2021/10/05 10:09:31;;;;;;;0.90;0.90;;;;;;;;;;4994929;28;20274;-80
2021/10/05 10:12:00;;;;;;;0.98;0.98;;;;;;;;;;4995542;28;20188;-80
2021/10/05 10:14:27;;;;;;;0.60;0.60;;;;;;;;;;5014542;28;20191;-82
2021/10/05 10:16:56;;;;;;;0.80;0.80;;;;;;;;;;5013816;28;20724;-81
2021/10/05 10:19:29;;;;;;;0.93;0.93;;;;;;;;;;5014382;28;20235;-80
2021/10/05 10:22:07;;;;;;;1.00;1.00;;;;;;;;;;5017792;28;20641;-80
2021/10/05 10:24:51;;;;;;;0.80;0.80;;;;;;;;;;4999143;28;20287;-80
2021/10/05 10:27:20;;;;;;;2.03;0.90;;;;;;;;;;4999042;28;20396;-81
2021/10/05 10:29:48;;;;;;;1.23;1.20;;;;;;;;;;4999196;28;20227;-80
2021/10/05 10:32:19;;;;;;;1.40;1.30;;;;;;;;;;4999005;28;20200;-81
2021/10/05 10:35:00;;;;;;;1.20;1.20;;;;;;;;;;4999359;28;20194;-81
2021/10/05 10:37:27;;;;;;;2.45;1.40;;;;;;;;;;4999005;28;20697;-81
2021/10/05 10:40:00;;;;;;;1.42;1.33;;;;;;;;;;4998955;28;20190;-81
2021/10/05 10:42:30;;;;;;;1.67;1.58;;;;;;;;;;5015704;28;20210;-82
2021/10/05 10:44:58;;;;;;;1.27;1.25;;;;;;;;;;5019094;28;20183;-80
2021/10/05 10:47:27;;;;;;;2.00;1.90;;;;;;;;;;5019518;28;20237;-80
2021/10/05 10:49:58;;;;;;;1.40;1.40;;;;;;;;;;5018241;28;20634;-80
2021/10/05 10:52:27;;;;;;;1.50;1.40;;;;;;;;;;5018107;28;20198;-80
2021/10/05 10:54:58;;;;;;;1.50;1.38;;;;;;;;;;5017784;28;20188;-80
2021/10/05 10:57:37;;;;;;;1.77;1.67;;;;;;;;;;5018024;28;20258;-80
2021/10/05 11:00:20;;;;;;;1.17;1.08;;;;;;;;;;5017986;28;20191;-80
2021/10/05 11:02:50;;;;;;;1.17;1.02;;;;;;;;;;5017436;28;20187;-80
2021/10/05 11:05:21;;;;;;;1.20;1.20;;;;;;;;;;5017856;28;20534;-80
2021/10/05 11:07:49;;;;;;;1.30;1.20;;;;;;;;;;5017658;28;20250;-81
2021/10/05 11:10:23;;;;;;;1.50;1.40;;;;;;;;;;5017978;28;20179;-81
2021/10/05 11:12:52;;;;;;;1.10;1.10;;;;;;;;;;5001394;28;20798;-80
2021/10/05 11:15:33;;;;;;;1.38;1.27;;;;;;;;;;4997713;28;20184;-80
2021/10/05 11:18:09;;;;;;;2.75;1.33;;;;;;;;;;4997514;28;20246;-80
2021/10/05 11:20:39;;;;;;;2.30;2.10;;;;;;;;;;4997913;28;20183;-80
2021/10/05 11:23:06;;;;;;;1.73;1.63;;;;;;;;;;4998143;28;20207;-80
2021/10/05 11:25:35;;;;;;;1.00;1.00;;;;;;;;;;4997471;28;20195;-80
2021/10/05 11:28:13;;;;;;;0.88;0.88;;;;;;;;;;4997259;28;20235;-80
2021/10/05 11:30:48;;;;;;;1.25;1.15;;;;;;;;;;5010359;28;20194;-81
2021/10/05 11:33:21;;;;;;;1.10;1.10;;;;;;;;;;4999017;28;20204;-80
2021/10/05 11:35:49;;;;;;;1.30;1.20;;;;;;;;;;4996876;28;20267;-81
2021/10/05 11:38:16;;;;;;;0.90;0.90;;;;;;;;;;4997567;28;20227;-80
2021/10/05 11:40:58;;;;;;;1.00;1.00;;;;;;;;;;4997758;28;20188;-80
2021/10/05 11:43:38;;;;;;;0.98;0.98;;;;;;;;;;4997593;28;20192;-81
2021/10/05 11:46:12;;;;;;;1.25;1.25;;;;;;;;;;4997298;28;20207;-80
2021/10/05 11:48:45;;;;;;;1.20;1.10;;;;;;;;;;4997610;28;20655;-80
2021/10/05 11:51:14;;;;;;;1.00;1.00;;;;;;;;;;4998070;28;20199;-81
2021/10/05 11:53:42;;;;;;;1.00;1.00;;;;;;;;;;4997311;28;20609;-80
2021/10/05 11:56:13;;;;;;;1.10;1.10;;;;;;;;;;4998468;28;20200;-80
2021/10/05 11:58:43;;;;;;;1.50;1.40;;;;;;;;;;4997225;28;20271;-80
2021/10/05 12:01:22;;;;;;;1.30;1.20;;;;;;;;;;4997497;28;20188;-80
2021/10/05 12:03:51;;;;;;;1.90;1.80;;;;;;;;;;4996815;28;20642;-80
2021/10/05 12:06:31;;;;;;;1.58;1.48;;;;;;;;;;4997380;28;20208;-80
2021/10/05 12:08:59;;;;;;;1.88;1.77;;;;;;;;;;4996779;28;20594;-80
2021/10/05 12:11:44;;;;;;;1.90;1.80;;;;;;;;;;4999764;28;20661;-80
2021/10/05 12:14:12;;;;;;;1.45;1.35;;;;;;;;;;5016703;28;20206;-81
2021/10/05 12:16:40;;;;;;;1.60;1.50;;;;;;;;;;5016069;28;20227;-81
2021/10/05 12:19:08;;;;;;;1.40;1.30;;;;;;;;;;5016505;28;20207;-81
2021/10/05 12:21:36;;;;;;;1.70;1.60;;;;;;;;;;5017143;28;20183;-80
2021/10/05 12:24:04;;;;;;;1.45;1.35;;;;;;;;;;5015985;28;20206;-81
2021/10/05 12:26:32;;;;;;;1.73;1.63;;;;;;;;;;5016178;28;20206;-80
2021/10/05 12:29:07;;;;;;;1.77;1.67;;;;;;;;;;5016281;28;20207;-81
2021/10/05 12:31:36;;;;;;;1.80;1.70;;;;;;;;;;5016301;28;20277;-81
2021/10/05 12:34:07;;;;;;;1.45;1.38;;;;;;;;;;5016668;28;20190;-80
2021/10/05 12:36:38;;;;;;;2.85;2.65;;;;;;;;;;5015862;28;20219;-82
2021/10/05 12:39:14;;;;;;;1.60;1.50;;;;;;;;;;5016640;28;20226;-80
2021/10/05 12:41:42;;;;;;;1.90;1.80;;;;;;;;;;5016335;28;20206;-80
2021/10/05 12:44:19;;;;;;;1.90;1.80;;;;;;;;;;5016392;28;20563;-80
2021/10/05 12:46:55;;;;;;;1.50;1.40;;;;;;;;;;5016233;28;20265;-80
2021/10/05 12:49:22;;;;;;;1.92;1.83;;;;;;;;;;5015844;28;20269;-80
2021/10/05 12:51:51;;;;;;;1.83;1.73;;;;;;;;;;5016026;28;20218;-81
2021/10/05 12:54:19;;;;;;;3.00;2.80;;;;;;;;;;5015539;28;20203;-80
2021/10/05 12:56:47;;;;;;;2.10;2.00;;;;;;;;;;5015782;28;20219;-80
2021/10/05 12:59:16;;;;;;;1.73;1.63;;;;;;;;;;5016156;28;20634;-80
2021/10/05 13:01:44;;;;;;;1.95;1.85;;;;;;;;;;5016119;28;20203;-80
2021/10/05 13:04:14;;;;;;;2.22;2.03;;;;;;;;;;5016030;28;20209;-79
2021/10/05 13:06:42;;;;;;;1.77;1.67;;;;;;;;;;5015752;28;20234;-82
2021/10/05 13:09:11;;;;;;;1.80;1.70;;;;;;;;;;5015862;28;20211;-81
2021/10/05 13:11:41;;;;;;;1.65;1.55;;;;;;;;;;5016199;28;20188;-79
2021/10/05 13:14:08;;;;;;;1.60;1.50;;;;;;;;;;5015360;28;20210;-80
2021/10/05 13:16:37;;;;;;;1.90;1.80;;;;;;;;;;5014931;28;20234;-80
2021/10/05 13:19:04;;;;;;;1.77;1.67;;;;;;;;;;5015083;28;20199;-80
2021/10/05 13:21:32;;;;;;;1.67;1.58;;;;;;;;;;5015438;28;20217;-80
2021/10/05 13:24:00;;;;;;;1.70;1.60;;;;;;;;;;5014805;28;20760;-80
2021/10/05 13:26:28;;;;;;;2.22;2.03;;;;;;;;;;5015152;28;20199;-80
2021/10/05 13:28:56;;;;;;;2.50;2.30;;;;;;;;;;5015317;28;20286;-81
2021/10/05 13:31:26;;;;;;;1.95;1.80;;;;;;;;;;5015426;28;20195;-80
2021/10/05 13:33:55;;;;;;;2.17;2.03;;;;;;;;;;5014978;28;20646;-80
2021/10/05 13:36:23;;;;;;;1.85;1.75;;;;;;;;;;5014837;28;20191;-80
2021/10/05 13:38:50;;;;;;;1.33;1.23;;;;;;;;;;5014642;28;20191;-80
2021/10/05 13:41:18;;;;;;;1.55;1.45;;;;;;;;;;5014962;28;20183;-80
2021/10/05 13:43:46;;;;;;;1.75;1.65;;;;;;;;;;5014430;28;20278;-79
2021/10/05 13:46:14;;;;;;;2.15;2.05;;;;;;;;;;5015010;28;20191;-81
2021/10/05 13:48:42;;;;;;;2.22;2.08;;;;;;;;;;5015076;28;20229;-80
2021/10/05 13:51:11;;;;;;;1.50;1.40;;;;;;;;;;5014879;28;20187;-80
2021/10/05 13:53:38;;;;;;;1.67;1.58;;;;;;;;;;5014736;28;20186;-80
2021/10/05 13:56:06;;;;;;;2.05;1.95;;;;;;;;;;5013898;28;20195;-80
2021/10/05 13:58:33;;;;;;;2.08;1.85;;;;;;;;;;5014725;28;20231;-81
2021/10/05 14:01:01;;;;;;;2.08;1.98;;;;;;;;;;5014670;28;20203;-81
2021/10/05 14:03:29;;;;;;;2.13;2.03;;;;;;;;;;5015257;28;20195;-80
2021/10/05 14:05:56;;;;;;;2.58;2.38;;;;;;;;;;5014846;28;20206;-80
2021/10/05 14:08:25;;;;;;;2.60;2.40;;;;;;;;;;5015473;28;20254;-81
2021/10/05 14:10:59;;;;;;;2.40;2.30;;;;;;;;;;5016005;28;20179;-80
2021/10/05 14:13:27;;;;;;;6.38;2.58;;;;;;;;;;5015447;28;20198;-80
2021/10/05 14:15:54;;;;;;;2.53;2.33;;;;;;;;;;5015693;28;20195;-80
2021/10/05 14:18:22;;;;;;;2.15;2.05;;;;;;;;;;5014998;28;20231;-81
2021/10/05 14:20:51;;;;;;;2.50;2.30;;;;;;;;;;5014981;28;20289;-81
2021/10/05 14:23:18;;;;;;;2.15;1.90;;;;;;;;;;5015711;28;20247;-81
2021/10/05 14:25:47;;;;;;;2.55;2.35;;;;;;;;;;5015141;28;20270;-81
2021/10/05 14:28:18;;;;;;;2.72;2.53;;;;;;;;;;5014942;28;20666;-80
2021/10/05 14:30:46;;;;;;;2.72;2.53;;;;;;;;;;5014850;28;20241;-80
2021/10/05 14:33:16;;;;;;;1.80;1.70;;;;;;;;;;5014562;28;20210;-80
2021/10/05 14:35:44;;;;;;;2.60;2.40;;;;;;;;;;5014973;28;20265;-80
2021/10/05 14:38:13;;;;;;;2.00;1.90;;;;;;;;;;5014287;28;20218;-82
2021/10/05 14:40:41;;;;;;;2.53;2.33;;;;;;;;;;5014203;28;20206;-82
2021/10/05 14:43:10;;;;;;;2.50;2.30;;;;;;;;;;5013176;28;20207;-82
2021/10/05 14:45:37;;;;;;;2.67;2.47;;;;;;;;;;5014096;28;20192;-82
2021/10/05 14:48:07;;;;;;;2.85;2.65;;;;;;;;;;5013144;28;20717;-82
2021/10/05 14:50:36;;;;;;;1.98;1.88;;;;;;;;;;5013459;28;20188;-81
2021/10/05 14:53:03;;;;;;;2.47;2.28;;;;;;;;;;5013368;28;20191;-82
2021/10/05 14:55:31;;;;;;;2.25;2.15;;;;;;;;;;5013433;28;20533;-81